createdAt,value
2022-11-08T00:01:51.845Z,85.40
2022-11-08T00:04:23.877Z,85.56
2022-11-08T00:07:12.297Z,85.55
2022-11-08T00:10:00.791Z,85.40
2022-11-08T00:12:49.099Z,85.22
2022-11-08T00:15:20.466Z,85.30
2022-11-08T00:17:52.020Z,85.28
2022-11-08T00:20:22.897Z,85.36
2022-11-08T00:22:53.917Z,85.27
2022-11-08T00:25:25.364Z,85.23
2022-11-08T00:27:56.229Z,85.17
2022-11-08T00:30:27.230Z,85.15
2022-11-08T00:32:58.372Z,85.10
2022-11-08T00:35:29.181Z,85.03
2022-11-08T00:38:00.319Z,84.94
2022-11-08T00:40:31.332Z,84.93
2022-11-08T00:43:02.229Z,85.02
2022-11-08T00:45:33.234Z,85.09
2022-11-08T00:48:04.394Z,85.08
2022-11-08T00:50:35.371Z,85.01
2022-11-08T00:53:04.886Z,85.10
2022-11-08T00:55:35.792Z,85.07
2022-11-08T00:58:06.569Z,85.01
2022-11-08T01:00:37.566Z,84.97
2022-11-08T01:03:21.930Z,84.85
2022-11-08T01:05:55.538Z,84.86
2022-11-08T01:08:26.980Z,84.88
2022-11-08T01:10:58.171Z,84.83
2022-11-08T01:13:27.755Z,84.80
2022-11-08T01:15:58.776Z,84.88
2022-11-08T01:18:29.843Z,84.91
2022-11-08T01:20:59.330Z,84.99
2022-11-08T01:23:30.326Z,85.12
2022-11-08T01:26:05.768Z,84.93
2022-11-08T01:28:37.452Z,84.76
2022-11-08T01:31:10.945Z,84.61
2022-11-08T01:33:47.012Z,84.54
2022-11-08T01:36:23.196Z,84.40
2022-11-08T01:38:55.259Z,84.22
2022-11-08T01:41:28.072Z,84.27
2022-11-08T01:44:00.714Z,84.18
2022-11-08T01:46:43.129Z,84.03
2022-11-08T01:49:39.397Z,83.94
2022-11-08T01:52:25.834Z,83.86
2022-11-08T01:55:08.382Z,84.03
2022-11-08T01:57:46.993Z,84.23
2022-11-08T02:00:19.195Z,84.41
2022-11-08T02:02:59.389Z,84.24
2022-11-08T02:05:32.508Z,84.05
2022-11-08T02:08:07.754Z,83.95
2022-11-08T02:10:41.230Z,84.15
2022-11-08T02:13:15.932Z,84.21
2022-11-08T02:15:47.302Z,84.10
2022-11-08T02:18:20.454Z,84.31
2022-11-08T02:20:59.342Z,84.43
2022-11-08T02:23:37.551Z,84.55
2022-11-08T02:26:08.958Z,84.61
2022-11-08T02:28:40.894Z,84.59
2022-11-08T02:31:13.156Z,84.62
2022-11-08T02:33:45.039Z,84.75
2022-11-08T02:36:19.089Z,84.67
2022-11-08T02:38:53.739Z,84.79
2022-11-08T02:41:25.212Z,84.92
2022-11-08T02:43:55.971Z,84.78
2022-11-08T02:46:26.862Z,84.67
2022-11-08T02:48:57.903Z,84.68
2022-11-08T02:51:28.793Z,84.80
2022-11-08T02:53:59.821Z,84.89
2022-11-08T02:56:31.253Z,85.01
2022-11-08T02:59:02.447Z,85.04
2022-11-08T03:01:33.416Z,85.05
2022-11-08T03:04:04.778Z,84.91
2022-11-08T03:06:35.692Z,84.96
2022-11-08T03:09:06.618Z,84.96
2022-11-08T03:11:37.513Z,84.93
2022-11-08T03:14:08.720Z,85.02
2022-11-08T03:16:40.701Z,84.99
2022-11-08T03:19:13.505Z,84.81
2022-11-08T03:21:44.416Z,84.81
2022-11-08T03:24:15.647Z,84.90
2022-11-08T03:26:45.029Z,85.08
2022-11-08T03:29:15.896Z,85.25
2022-11-08T03:31:46.920Z,85.22
2022-11-08T03:34:18.058Z,85.17
2022-11-08T03:36:48.969Z,85.25
2022-11-08T03:39:19.875Z,85.21
2022-11-08T03:41:50.617Z,85.12
2022-11-08T03:44:21.572Z,85.16
2022-11-08T03:46:52.343Z,85.05
2022-11-08T03:49:23.243Z,84.83
2022-11-08T03:51:54.663Z,84.70
2022-11-08T03:54:25.678Z,84.86
2022-11-08T03:56:56.953Z,84.99
2022-11-08T03:59:26.388Z,84.85
2022-11-08T04:01:57.505Z,84.83
2022-11-08T04:04:28.752Z,84.81
2022-11-08T04:06:59.652Z,84.75
2022-11-08T04:09:30.621Z,84.83
2022-11-08T04:12:18.739Z,84.81
2022-11-08T04:15:12.468Z,84.77
2022-11-08T04:18:01.815Z,84.71
2022-11-08T04:20:51.188Z,84.71
2022-11-08T04:23:22.721Z,84.77
2022-11-08T04:25:58.301Z,84.52
2022-11-08T04:28:30.764Z,84.49
2022-11-08T04:31:03.954Z,84.40
2022-11-08T04:33:34.879Z,84.36
2022-11-08T04:36:07.889Z,84.54
2022-11-08T04:38:38.946Z,84.74
2022-11-08T04:41:12.476Z,84.71
2022-11-08T04:43:43.741Z,84.56
2022-11-08T04:46:15.720Z,84.47
2022-11-08T04:48:46.726Z,84.68
2022-11-08T04:51:17.400Z,84.74
2022-11-08T04:53:48.689Z,84.79
2022-11-08T04:56:20.096Z,84.75
2022-11-08T04:58:53.606Z,84.84
2022-11-08T05:01:26.535Z,84.71
2022-11-08T05:03:58.400Z,84.90
2022-11-08T05:06:31.372Z,84.97
2022-11-08T05:09:02.686Z,84.88
2022-11-08T05:11:32.467Z,84.88
2022-11-08T05:14:03.342Z,84.91
2022-11-08T05:16:34.897Z,84.87
2022-11-08T05:19:11.973Z,84.75
2022-11-08T05:22:01.309Z,84.80
2022-11-08T05:24:32.271Z,85.04
2022-11-08T05:27:03.428Z,85.35
2022-11-08T05:29:38.532Z,85.27
2022-11-08T05:32:12.284Z,85.31
2022-11-08T05:34:43.183Z,85.40
2022-11-08T05:37:14.064Z,85.53
2022-11-08T05:39:45.105Z,85.61
2022-11-08T05:42:16.205Z,85.61
2022-11-08T05:44:47.575Z,85.35
2022-11-08T05:47:18.876Z,85.36
2022-11-08T05:49:50.009Z,85.29
2022-11-08T05:52:20.851Z,85.33
2022-11-08T05:54:52.059Z,85.32
2022-11-08T05:57:23.104Z,85.22
2022-11-08T05:59:54.118Z,85.18
2022-11-08T06:02:25.270Z,85.27
2022-11-08T06:04:56.948Z,85.15
2022-11-08T06:07:26.258Z,85.17
2022-11-08T06:09:57.066Z,85.09
2022-11-08T06:12:27.904Z,85.11
2022-11-08T06:14:58.833Z,85.06
2022-11-08T06:17:30.221Z,85.03
2022-11-08T06:20:01.612Z,84.99
2022-11-08T06:22:34.930Z,84.91
2022-11-08T06:25:06.316Z,84.78
2022-11-08T06:27:37.415Z,84.82
2022-11-08T06:30:10.358Z,85.02
2022-11-08T06:32:41.843Z,85.10
2022-11-08T06:35:13.377Z,84.98
2022-11-08T06:37:44.552Z,84.99
2022-11-08T06:40:16.052Z,85.06
2022-11-08T06:42:46.976Z,84.88
2022-11-08T06:45:18.247Z,84.93
2022-11-08T06:47:47.577Z,84.66
2022-11-08T06:50:18.856Z,84.73
2022-11-08T06:52:49.576Z,84.72
2022-11-08T06:55:20.710Z,84.78
2022-11-08T06:57:51.833Z,84.82
2022-11-08T07:00:23.627Z,84.92
2022-11-08T07:02:56.877Z,84.68
2022-11-08T07:05:29.123Z,84.84
2022-11-08T07:08:01.662Z,84.73
2022-11-08T07:10:34.383Z,84.57
2022-11-08T07:13:07.721Z,84.48
2022-11-08T07:15:40.414Z,84.65
2022-11-08T07:18:14.226Z,84.70
2022-11-08T07:20:46.392Z,84.62
2022-11-08T07:23:17.849Z,84.77
2022-11-08T07:25:49.182Z,84.85
2022-11-08T07:28:21.088Z,84.95
2022-11-08T07:30:51.925Z,84.88
2022-11-08T07:33:23.102Z,84.80
2022-11-08T07:35:54.523Z,84.71
2022-11-08T07:38:26.559Z,84.79
2022-11-08T07:40:59.811Z,84.74
2022-11-08T07:43:31.346Z,84.93
2022-11-08T07:46:03.782Z,84.83
2022-11-08T07:48:35.742Z,84.91
2022-11-08T07:51:07.013Z,85.00
2022-11-08T07:53:38.019Z,85.03
2022-11-08T07:56:09.114Z,85.05
2022-11-08T07:58:40.085Z,85.07
2022-11-08T08:01:11.131Z,85.33
2022-11-08T08:03:42.064Z,85.49
2022-11-08T08:06:13.164Z,85.83
2022-11-08T08:08:44.143Z,85.97
2022-11-08T08:11:15.240Z,85.95
2022-11-08T08:13:46.314Z,85.94
2022-11-08T08:16:17.330Z,85.97
2022-11-08T08:18:55.042Z,86.01
2022-11-08T08:21:27.092Z,86.18
2022-11-08T08:23:58.063Z,86.24
2022-11-08T08:26:28.864Z,86.33
2022-11-08T08:29:00.068Z,86.40
2022-11-08T08:31:33.630Z,86.53
2022-11-08T08:34:04.730Z,86.55
2022-11-08T08:36:35.521Z,86.69
2022-11-08T08:39:06.678Z,86.81
2022-11-08T08:41:36.563Z,86.82
2022-11-08T08:44:06.060Z,86.96
2022-11-08T08:46:37.169Z,86.99
2022-11-08T08:49:08.013Z,87.01
2022-11-08T08:51:38.840Z,86.89
2022-11-08T08:54:09.863Z,86.89
2022-11-08T08:56:39.367Z,86.85
2022-11-08T09:02:01.586Z,86.64
2022-11-08T09:04:32.900Z,86.61
2022-11-08T09:07:03.916Z,86.51
2022-11-08T09:09:36.406Z,86.72
2022-11-08T09:12:13.459Z,86.75
2022-11-08T09:14:45.925Z,86.76
2022-11-08T09:17:17.049Z,86.76
2022-11-08T09:19:51.883Z,86.83
2022-11-08T09:22:25.866Z,86.97
2022-11-08T09:24:55.402Z,87.02
2022-11-08T09:27:26.540Z,87.12
2022-11-08T09:29:57.578Z,87.18
2022-11-08T09:32:54.078Z,87.14
2022-11-08T09:35:20.555Z,87.08
2022-11-08T09:37:53.411Z,87.01
2022-11-08T09:40:31.279Z,87.01
2022-11-08T09:43:18.399Z,86.96
2022-11-08T09:45:53.069Z,86.84
2022-11-08T09:48:37.672Z,87.04
2022-11-08T09:51:14.421Z,86.86
2022-11-08T09:53:51.031Z,86.81
2022-11-08T09:56:28.850Z,86.51
2022-11-08T09:59:04.339Z,86.29
2022-11-08T10:01:37.635Z,86.28
2022-11-08T10:04:15.709Z,86.02
2022-11-08T10:07:10.136Z,85.99
2022-11-08T10:10:09.873Z,85.64
2022-11-08T10:12:51.383Z,85.48
2022-11-08T10:15:28.345Z,85.21
2022-11-08T10:18:23.787Z,85.32
2022-11-08T10:21:04.496Z,85.27
2022-11-08T10:23:44.826Z,84.92
2022-11-08T10:26:24.175Z,84.70
2022-11-08T10:29:01.377Z,84.37
2022-11-08T10:31:36.623Z,84.05
2022-11-08T10:34:18.542Z,83.38
2022-11-08T10:36:52.356Z,83.23
2022-11-08T10:39:26.033Z,82.89
2022-11-08T10:42:03.698Z,82.60
2022-11-08T10:44:36.701Z,82.23
2022-11-08T10:47:12.919Z,82.51
2022-11-08T10:49:44.840Z,82.56
2022-11-08T10:52:26.427Z,81.93
2022-11-08T10:54:59.202Z,81.69
2022-11-08T10:57:43.836Z,80.96
2022-11-08T11:00:29.325Z,80.61
2022-11-08T11:03:02.492Z,80.56
2022-11-08T11:05:36.593Z,79.77
2022-11-08T11:08:17.571Z,79.41
2022-11-08T11:10:50.507Z,79.95
2022-11-08T11:16:04.243Z,79.63
2022-11-08T11:18:35.329Z,79.49
2022-11-08T11:21:16.511Z,78.62
2022-11-08T11:23:50.097Z,78.81
2022-11-08T11:26:31.017Z,78.30
2022-11-08T11:29:07.002Z,78.46
2022-11-08T11:31:39.707Z,78.81
2022-11-08T11:34:41.499Z,78.19
2022-11-08T11:37:22.429Z,77.46
2022-11-08T11:40:03.563Z,77.46
2022-11-08T11:42:47.175Z,78.00
2022-11-08T11:45:28.520Z,77.79
2022-11-08T11:48:02.646Z,78.03
2022-11-08T11:50:36.652Z,77.70
2022-11-08T11:53:16.518Z,76.52
2022-11-08T11:56:05.241Z,77.11
2022-11-08T11:58:52.035Z,75.75
2022-11-08T12:01:33.729Z,75.23
2022-11-08T12:04:25.564Z,75.53
2022-11-08T12:07:05.459Z,75.38
2022-11-08T12:09:49.707Z,75.15
2022-11-08T12:12:35.066Z,75.25
2022-11-08T12:15:13.812Z,75.52
2022-11-08T12:18:09.522Z,73.69
2022-11-08T12:20:51.981Z,73.96
2022-11-08T12:23:59.175Z,73.02
2022-11-08T12:26:38.856Z,73.20
2022-11-08T12:29:30.772Z,73.27
2022-11-08T12:32:20.127Z,73.56
2022-11-08T12:35:04.128Z,72.43
2022-11-08T12:37:51.442Z,71.79
2022-11-08T12:40:32.314Z,71.92
2022-11-08T12:43:12.735Z,72.03
2022-11-08T12:45:58.352Z,71.41
2022-11-08T12:48:58.896Z,71.87
2022-11-08T12:51:41.975Z,71.40
2022-11-08T12:54:30.671Z,71.50
2022-11-08T12:57:05.382Z,71.68
2022-11-08T12:59:42.634Z,71.63
2022-11-08T13:02:21.812Z,72.32
2022-11-08T13:05:03.327Z,72.61
2022-11-08T13:07:46.075Z,73.07
2022-11-08T13:10:30.897Z,72.90
2022-11-08T13:13:24.462Z,73.09
2022-11-08T13:16:14.718Z,73.23
2022-11-08T13:18:51.470Z,73.40
2022-11-08T13:21:41.198Z,73.86
2022-11-08T13:24:45.412Z,74.07
2022-11-08T13:27:37.158Z,74.81
2022-11-08T13:30:33.151Z,74.95
2022-11-08T13:33:14.381Z,75.34
2022-11-08T13:35:50.722Z,75.47
2022-11-08T13:38:31.865Z,75.65
2022-11-08T13:41:16.895Z,75.85
2022-11-08T13:43:49.130Z,75.96
2022-11-08T13:46:50.205Z,76.18
2022-11-08T13:49:24.169Z,76.46
2022-11-08T13:52:46.748Z,76.54
2022-11-08T13:55:47.226Z,76.74
2022-11-08T13:58:35.531Z,76.78
2022-11-08T14:01:08.374Z,76.91
2022-11-08T14:03:59.986Z,77.03
2022-11-08T14:06:40.199Z,77.27
2022-11-08T14:09:21.796Z,77.61
2022-11-08T14:12:00.333Z,77.69
2022-11-08T14:14:58.995Z,77.65
2022-11-08T14:17:37.691Z,77.79
2022-11-08T14:20:31.560Z,77.93
2022-11-08T14:23:14.003Z,77.93
2022-11-08T14:25:47.807Z,78.05
2022-11-08T14:28:30.939Z,78.46
2022-11-08T14:31:01.360Z,78.46
2022-11-08T14:33:42.721Z,78.56
2022-11-08T14:36:19.027Z,78.45
2022-11-08T14:38:53.736Z,78.45
2022-11-08T14:41:29.174Z,78.46
2022-11-08T14:44:02.225Z,78.90
2022-11-08T14:46:35.571Z,79.69
2022-11-08T14:49:20.332Z,80.13
2022-11-08T14:52:08.035Z,80.37
2022-11-08T14:54:46.808Z,80.37
2022-11-08T14:57:45.561Z,80.56
2022-11-08T15:00:22.633Z,80.92
2022-11-08T15:03:00.850Z,80.99
2022-11-08T15:05:42.966Z,81.15
2022-11-08T15:08:24.173Z,80.91
2022-11-08T15:10:58.450Z,81.18
2022-11-08T15:13:33.745Z,81.28
2022-11-08T15:16:38.687Z,81.43
2022-11-08T15:19:29.629Z,81.45
2022-11-08T15:22:04.052Z,81.59
2022-11-08T15:24:39.349Z,81.64
2022-11-08T15:27:17.657Z,81.84
2022-11-08T15:30:00.743Z,81.88
2022-11-08T15:32:38.709Z,81.81
2022-11-08T15:35:21.482Z,81.91
2022-11-08T15:37:53.010Z,81.81
2022-11-08T15:40:28.306Z,82.01
2022-11-08T15:43:00.136Z,82.27
2022-11-08T15:45:35.228Z,82.57
2022-11-08T15:48:21.823Z,82.57
2022-11-08T15:50:52.885Z,82.64
2022-11-08T15:53:24.696Z,82.52
2022-11-08T15:55:59.150Z,82.61
2022-11-08T15:58:31.880Z,82.95
2022-11-08T16:01:05.750Z,83.11
2022-11-08T16:03:37.048Z,83.50
2022-11-08T16:06:06.836Z,84.04
2022-11-08T16:08:36.243Z,83.83
2022-11-08T16:11:09.992Z,83.59
2022-11-08T16:13:41.884Z,83.42
2022-11-08T16:16:16.152Z,82.96
2022-11-08T16:18:47.161Z,83.07
2022-11-08T16:21:18.324Z,83.31
2022-11-08T16:23:49.305Z,83.25
2022-11-08T16:26:20.843Z,83.10
2022-11-08T16:28:51.741Z,82.94
2022-11-08T16:31:22.838Z,83.27
2022-11-08T16:33:56.126Z,83.60
2022-11-08T16:36:28.874Z,83.40
2022-11-08T16:39:02.789Z,83.50
2022-11-08T16:41:36.626Z,83.58
2022-11-08T16:44:10.937Z,83.60
2022-11-08T16:46:42.123Z,83.30
2022-11-08T16:49:21.972Z,83.30
2022-11-08T16:51:53.252Z,83.19
2022-11-08T16:54:28.409Z,83.26
2022-11-08T16:57:28.382Z,83.46
2022-11-08T16:59:52.018Z,83.77
2022-11-08T17:02:28.510Z,83.93
2022-11-08T17:04:59.434Z,83.96
2022-11-08T17:07:30.718Z,83.77
2022-11-08T17:10:00.096Z,83.80
2022-11-08T17:12:29.851Z,83.81
2022-11-08T17:15:01.363Z,83.81
2022-11-08T17:17:32.677Z,83.83
2022-11-08T17:20:03.916Z,83.94
2022-11-08T17:22:33.486Z,84.02
2022-11-08T17:25:04.653Z,84.00
2022-11-08T17:27:34.002Z,83.69
2022-11-08T17:30:05.487Z,83.67
2022-11-08T17:32:36.943Z,83.82
2022-11-08T17:35:10.154Z,84.23
2022-11-08T17:37:41.583Z,84.15
2022-11-08T17:40:11.798Z,84.20
2022-11-08T17:42:42.921Z,84.59
2022-11-08T17:45:15.274Z,85.01
2022-11-08T17:47:46.226Z,85.01
2022-11-08T17:50:17.250Z,85.35
2022-11-08T17:52:48.381Z,85.79
2022-11-08T17:55:17.846Z,86.24
2022-11-08T17:57:48.883Z,85.87
2022-11-08T18:00:21.182Z,86.20
2022-11-08T18:02:52.263Z,86.41
2022-11-08T18:05:23.221Z,86.62
2022-11-08T18:08:12.853Z,86.92
2022-11-08T18:10:48.200Z,87.03
2022-11-08T18:13:20.387Z,87.05
2022-11-08T18:15:52.520Z,87.18
2022-11-08T18:18:22.246Z,87.99
2022-11-08T18:20:57.281Z,87.89
2022-11-08T18:23:28.283Z,87.83
2022-11-08T18:25:59.657Z,87.71
2022-11-08T18:28:29.464Z,87.50
2022-11-08T18:31:08.013Z,87.50
2022-11-08T18:33:40.045Z,87.59
2022-11-08T18:36:13.751Z,87.51
2022-11-08T18:38:46.080Z,87.29
2022-11-08T18:41:18.788Z,87.20
2022-11-08T18:43:49.947Z,87.23
2022-11-08T18:46:23.359Z,87.14
2022-11-08T18:48:54.697Z,87.18
2022-11-08T18:51:26.178Z,87.18
2022-11-08T18:53:57.355Z,86.92
2022-11-08T18:56:28.424Z,86.99
2022-11-08T18:58:58.006Z,87.20
2022-11-08T19:01:29.132Z,87.33
2022-11-08T19:04:00.346Z,87.38
2022-11-08T19:06:31.585Z,87.16
2022-11-08T19:09:03.078Z,86.89
2022-11-08T19:11:34.280Z,87.38
2022-11-08T19:14:05.607Z,87.56
2022-11-08T19:16:35.412Z,87.73
2022-11-08T19:19:06.460Z,87.89
2022-11-08T19:21:41.593Z,87.99
2022-11-08T19:24:12.669Z,87.76
2022-11-08T19:26:43.977Z,87.95
2022-11-08T19:29:15.220Z,87.73
2022-11-08T19:31:46.469Z,87.51
2022-11-08T19:34:17.323Z,87.38
2022-11-08T19:36:55.269Z,87.49
2022-11-08T19:39:26.737Z,87.48
2022-11-08T19:41:57.634Z,87.70
2022-11-08T19:44:28.709Z,87.91
2022-11-08T19:46:59.563Z,87.84
2022-11-08T19:49:30.768Z,88.02
2022-11-08T19:52:01.696Z,87.88
2022-11-08T19:54:31.145Z,87.51
2022-11-08T19:57:05.181Z,87.41
2022-11-08T19:59:36.851Z,87.25
2022-11-08T20:02:07.669Z,87.17
2022-11-08T20:04:38.908Z,87.24
2022-11-08T20:07:08.301Z,87.09
2022-11-08T20:09:39.216Z,86.92
2022-11-08T20:12:08.675Z,86.88
2022-11-08T20:14:39.737Z,86.63
2022-11-08T20:17:10.721Z,86.52
2022-11-08T20:19:41.472Z,86.39
2022-11-08T20:22:12.847Z,86.58
2022-11-08T20:27:15.563Z,86.64
2022-11-08T20:29:46.798Z,86.48
2022-11-08T20:32:17.949Z,86.51
2022-11-08T20:34:50.707Z,86.46
2022-11-08T20:37:22.057Z,86.03
2022-11-08T20:39:53.472Z,85.94
2022-11-08T20:42:24.684Z,86.11
2022-11-08T20:44:54.147Z,86.23
2022-11-08T20:47:25.214Z,86.32
2022-11-08T20:49:57.208Z,86.41
2022-11-08T20:52:28.151Z,86.39
2022-11-08T20:54:59.278Z,86.18
2022-11-08T20:57:28.688Z,86.13
2022-11-08T21:00:12.484Z,86.17
2022-11-08T21:02:44.247Z,86.20
2022-11-08T21:05:13.852Z,86.45
2022-11-08T21:08:05.408Z,86.69
2022-11-08T21:10:42.772Z,86.77
2022-11-08T21:13:14.561Z,86.77
2022-11-08T21:15:48.719Z,86.81
2022-11-08T21:18:20.614Z,86.84
2022-11-08T21:20:52.813Z,86.83
2022-11-08T21:23:25.596Z,86.48
2022-11-08T21:25:56.711Z,86.33
2022-11-08T21:28:28.111Z,86.19
2022-11-08T21:30:59.109Z,86.04
2022-11-08T21:33:30.175Z,86.14
2022-11-08T21:36:01.539Z,86.40
2022-11-08T21:38:32.779Z,86.36
2022-11-08T21:41:07.158Z,86.06
2022-11-08T21:43:40.285Z,85.94
2022-11-08T21:46:20.484Z,85.89
2022-11-08T21:48:56.718Z,86.25
2022-11-08T21:51:29.379Z,86.19
2022-11-08T21:54:01.507Z,86.11
2022-11-08T21:56:34.741Z,86.12
2022-11-08T21:59:06.150Z,85.99
2022-11-08T22:01:37.339Z,86.06
2022-11-08T22:04:08.657Z,85.99
2022-11-08T22:06:42.585Z,85.82
2022-11-08T22:09:17.418Z,85.56
2022-11-08T22:11:49.249Z,85.58
2022-11-08T22:14:20.032Z,85.66
2022-11-08T22:16:50.888Z,85.61
2022-11-08T22:19:21.693Z,85.53
2022-11-08T22:21:52.593Z,85.35
2022-11-08T22:24:23.872Z,85.44
2022-11-08T22:26:54.915Z,85.36
2022-11-08T22:29:26.269Z,85.30
2022-11-08T22:31:57.389Z,85.21
2022-11-08T22:34:27.255Z,85.23
2022-11-08T22:36:58.198Z,85.20
2022-11-08T22:39:29.121Z,85.36
2022-11-08T22:42:00.459Z,85.39
2022-11-08T22:44:31.243Z,85.29
2022-11-08T22:47:02.387Z,85.26
2022-11-08T22:49:33.225Z,85.23
2022-11-08T22:52:04.377Z,85.26
2022-11-08T22:54:35.828Z,85.29
2022-11-08T22:57:08.131Z,85.31
2022-11-08T22:59:39.158Z,85.29
2022-11-08T23:02:10.151Z,85.19
2022-11-08T23:04:40.980Z,85.06
2022-11-08T23:07:12.046Z,85.20
2022-11-08T23:09:43.086Z,85.10
2022-11-08T23:12:31.561Z,85.13
2022-11-08T23:15:16.441Z,85.08
2022-11-08T23:17:47.431Z,84.98
2022-11-08T23:20:36.562Z,85.00
2022-11-08T23:23:26.768Z,85.14
2022-11-08T23:25:58.507Z,85.15
2022-11-08T23:28:47.332Z,85.25
2022-11-08T23:31:32.096Z,85.39
2022-11-08T23:34:03.216Z,85.46
2022-11-08T23:36:34.733Z,85.36
2022-11-08T23:39:06.054Z,85.61
2022-11-08T23:41:54.794Z,85.77
2022-11-08T23:44:25.771Z,85.83
2022-11-08T23:46:58.252Z,85.99
2022-11-08T23:49:30.109Z,86.03
2022-11-08T23:52:00.908Z,86.05
2022-11-08T23:54:32.056Z,86.00
2022-11-08T23:57:03.061Z,85.98
2022-11-08T23:59:34.114Z,85.94
